Time;durP1;ratioP1;P1;durP2;ratioP2;P2;SDS_P1;SDS_P2;PMS_P1;PMS_P2;Temp;Humidity;BMP_temperature;BMP_pressure;BME280_temperature;BME280_humidity;BME280_pressure;Samples;Min_cycle;Max_cycle;Signal;HPM_P1;HPM_P2
2023/07/11 00:02:16;;;;;;;3.42;1.00;;;16.80;99.90;;;;;;5095092;28;20039;-62
2023/07/11 00:04:42;;;;;;;1.10;0.70;;;16.80;99.90;;;;;;5095767;28;20101;-62
2023/07/11 00:07:08;;;;;;;2.35;1.10;;;16.80;99.90;;;;;;5096497;28;20044;-62
2023/07/11 00:09:34;;;;;;;1.10;0.60;;;16.70;99.90;;;;;;5077669;28;20446;-62
2023/07/11 00:11:59;;;;;;;2.05;0.82;;;16.60;99.90;;;;;;5074114;28;20554;-62
2023/07/11 00:14:25;;;;;;;3.05;0.85;;;16.60;99.90;;;;;;5075284;28;20082;-62
2023/07/11 00:16:52;;;;;;;5.32;0.77;;;16.60;99.90;;;;;;5093132;28;20098;-62
2023/07/11 00:19:19;;;;;;;2.97;1.15;;;16.50;99.90;;;;;;5092552;28;20114;-62
2023/07/11 00:21:46;;;;;;;1.70;1.00;;;16.40;99.90;;;;;;5074890;28;20519;-62
2023/07/11 00:24:13;;;;;;;3.60;0.85;;;16.40;99.90;;;;;;5093181;28;20032;-62
2023/07/11 00:26:39;;;;;;;2.45;1.00;;;16.30;99.90;;;;;;5074253;28;20052;-62
2023/07/11 00:29:19;;;;;;;2.38;1.10;;;16.30;99.90;;;;;;5092609;28;20097;-62
2023/07/11 00:31:45;;;;;;;4.43;1.40;;;16.40;99.90;;;;;;5092251;28;20377;-62
2023/07/11 00:34:11;;;;;;;3.72;0.98;;;16.30;99.90;;;;;;5074626;28;20127;-62
2023/07/11 00:36:37;;;;;;;2.50;1.27;;;16.40;99.90;;;;;;5074363;28;20119;-62
2023/07/11 00:39:04;;;;;;;1.58;0.70;;;16.40;99.90;;;;;;5073900;28;20044;-63
2023/07/11 00:41:31;;;;;;;2.40;0.73;;;16.40;99.90;;;;;;5074336;28;20036;-62
2023/07/11 00:43:57;;;;;;;1.42;0.95;;;16.40;99.90;;;;;;5074802;28;20129;-62
2023/07/11 00:46:24;;;;;;;2.33;0.65;;;16.50;99.90;;;;;;5073655;28;20043;-62
2023/07/11 00:49:02;;;;;;;5.22;1.23;;;16.50;99.90;;;;;;5092740;28;20047;-62
2023/07/11 00:51:37;;;;;;;1.77;0.93;;;16.60;99.90;;;;;;5092251;28;20036;-62
2023/07/11 00:54:06;;;;;;;1.77;0.98;;;16.60;99.90;;;;;;5073812;28;20290;-62
2023/07/11 00:56:38;;;;;;;1.15;0.70;;;16.60;99.90;;;;;;5092149;28;20048;-62
2023/07/11 00:59:03;;;;;;;4.15;0.80;;;16.60;99.90;;;;;;5052962;28;20047;-62
2023/07/11 01:01:30;;;;;;;1.45;0.60;;;16.60;99.90;;;;;;5053769;28;20472;-63
2023/07/11 01:03:57;;;;;;;3.08;0.90;;;16.60;99.90;;;;;;5078711;28;20489;-62
2023/07/11 01:06:25;;;;;;;2.15;0.80;;;16.70;99.90;;;;;;5092299;28;20035;-62
2023/07/11 01:08:54;;;;;;;3.57;1.17;;;16.60;99.90;;;;;;5073337;28;20067;-62
2023/07/11 01:11:21;;;;;;;1.55;0.80;;;16.60;99.90;;;;;;5074222;28;20113;-62
2023/07/11 01:13:48;;;;;;;1.42;0.70;;;16.60;99.90;;;;;;5073595;28;20079;-63
2023/07/11 01:16:14;;;;;;;2.92;0.80;;;16.60;99.90;;;;;;5091975;28;20130;-62
2023/07/11 01:18:40;;;;;;;1.95;1.00;;;16.60;99.90;;;;;;5073816;28;20147;-62
2023/07/11 01:21:08;;;;;;;1.80;0.80;;;16.70;99.90;;;;;;5090984;28;20392;-62
2023/07/11 01:23:34;;;;;;;1.77;0.80;;;16.60;99.90;;;;;;5072941;28;20753;-62
2023/07/11 01:26:06;;;;;;;1.80;0.70;;;16.60;99.90;;;;;;5073836;28;20062;-62
2023/07/11 01:28:33;;;;;;;2.72;0.60;;;16.50;99.90;;;;;;5091219;28;20426;-62
2023/07/11 01:30:59;;;;;;;3.05;0.77;;;16.50;99.90;;;;;;5073614;28;20051;-62
2023/07/11 01:33:26;;;;;;;2.78;0.95;;;16.40;99.90;;;;;;5091516;28;20040;-62
2023/07/11 01:35:53;;;;;;;1.88;0.90;;;16.40;99.90;;;;;;5072617;28;20476;-62
2023/07/11 01:38:21;;;;;;;1.42;0.65;;;16.40;99.90;;;;;;5091507;28;20408;-62
2023/07/11 01:40:48;;;;;;;1.23;0.77;;;16.30;99.90;;;;;;5056656;28;20492;-62
2023/07/11 01:43:16;;;;;;;1.80;0.93;;;16.30;99.90;;;;;;5072843;28;20046;-62
2023/07/11 01:45:42;;;;;;;2.80;1.10;;;16.30;99.90;;;;;;5073263;28;20032;-63
2023/07/11 01:48:08;;;;;;;2.10;1.00;;;16.20;99.90;;;;;;5091557;28;20401;-62
2023/07/11 01:50:34;;;;;;;1.95;1.27;;;16.20;99.90;;;;;;5072461;28;20040;-62
2023/07/11 01:53:00;;;;;;;1.38;0.80;;;16.20;99.90;;;;;;5090897;28;20052;-62
2023/07/11 01:55:26;;;;;;;1.77;1.10;;;16.20;99.90;;;;;;5066372;28;20045;-62
2023/07/11 01:57:52;;;;;;;1.75;1.15;;;16.10;99.90;;;;;;5053210;28;20036;-63
2023/07/11 02:00:19;;;;;;;2.42;1.25;;;16.10;99.90;;;;;;5079181;28;20376;-62
2023/07/11 02:02:45;;;;;;;2.70;1.38;;;16.00;99.90;;;;;;5090549;28;20104;-62
2023/07/11 02:05:14;;;;;;;2.83;1.10;;;16.00;99.90;;;;;;5072724;28;20140;-63
2023/07/11 02:07:39;;;;;;;2.10;1.33;;;16.00;99.90;;;;;;5070783;28;20126;-62
2023/07/11 02:10:07;;;;;;;3.63;1.20;;;16.00;99.90;;;;;;5070341;28;20170;-62
2023/07/11 02:12:32;;;;;;;4.32;1.20;;;16.00;99.90;;;;;;5070850;28;20032;-62
2023/07/11 02:14:58;;;;;;;2.35;1.10;;;16.00;99.90;;;;;;5052978;28;20481;-62
2023/07/11 02:17:24;;;;;;;4.13;0.93;;;16.00;99.90;;;;;;5052046;28;20051;-62
2023/07/11 02:19:50;;;;;;;1.58;0.80;;;16.00;99.90;;;;;;5052720;28;20044;-62
2023/07/11 02:22:16;;;;;;;1.35;0.90;;;15.90;99.90;;;;;;5052637;28;20032;-62
2023/07/11 02:24:41;;;;;;;2.40;0.98;;;15.90;99.90;;;;;;5069933;28;20512;-62
2023/07/11 02:27:07;;;;;;;1.83;0.82;;;15.80;99.90;;;;;;5070588;28;20098;-62
2023/07/11 02:29:34;;;;;;;3.47;1.10;;;15.80;99.90;;;;;;5052649;28;20089;-62
2023/07/11 02:32:00;;;;;;;1.98;1.42;;;15.80;99.90;;;;;;5035307;28;20131;-62
2023/07/11 02:34:26;;;;;;;1.77;0.80;;;15.80;99.90;;;;;;5047503;28;20055;-63
2023/07/11 02:36:52;;;;;;;1.30;0.60;;;15.80;99.90;;;;;;5072367;28;20472;-62
2023/07/11 02:39:17;;;;;;;1.60;0.70;;;15.70;99.90;;;;;;5072127;28;20044;-62
2023/07/11 02:41:43;;;;;;;3.80;1.15;;;15.70;99.90;;;;;;5072396;28;20035;-62
2023/07/11 02:44:09;;;;;;;1.73;0.95;;;15.70;99.90;;;;;;5072244;28;20044;-62
2023/07/11 02:46:36;;;;;;;1.85;0.90;;;15.60;99.90;;;;;;5072043;28;20051;-62
2023/07/11 02:49:02;;;;;;;1.98;0.85;;;15.60;99.90;;;;;;5090447;28;20123;-62
2023/07/11 02:51:28;;;;;;;6.07;1.45;;;15.60;99.90;;;;;;5084569;28;20044;-62
2023/07/11 02:53:55;;;;;;;1.92;0.73;;;15.60;99.90;;;;;;5052332;28;20048;-62
2023/07/11 02:56:21;;;;;;;2.08;1.00;;;15.60;99.90;;;;;;5052183;28;20488;-62
2023/07/11 02:58:49;;;;;;;3.03;1.05;;;15.50;99.90;;;;;;5071489;28;20040;-62
2023/07/11 03:01:15;;;;;;;2.55;0.80;;;15.50;99.90;;;;;;5058992;28;20040;-62
2023/07/11 03:03:41;;;;;;;1.98;0.82;;;15.50;99.90;;;;;;5054140;28;20040;-62
2023/07/11 03:06:07;;;;;;;2.20;1.00;;;15.50;99.90;;;;;;5071340;28;20482;-62
2023/07/11 03:08:33;;;;;;;2.78;1.27;;;15.50;99.90;;;;;;5072132;28;20036;-62
2023/07/11 03:11:00;;;;;;;3.10;0.95;;;15.40;99.90;;;;;;5072341;28;20253;-62
2023/07/11 03:13:26;;;;;;;4.78;1.42;;;15.40;99.90;;;;;;5089754;28;20101;-62
2023/07/11 03:15:52;;;;;;;2.60;0.95;;;15.40;99.90;;;;;;5071999;28;20048;-62
2023/07/11 03:18:18;;;;;;;1.80;1.13;;;15.40;99.90;;;;;;5071780;28;20048;-63
2023/07/11 03:20:44;;;;;;;1.52;1.10;;;15.40;99.90;;;;;;5089443;28;20032;-63
2023/07/11 03:23:13;;;;;;;2.78;1.20;;;15.40;99.90;;;;;;5055611;28;20465;-62
2023/07/11 03:25:40;;;;;;;4.78;1.30;;;15.40;99.90;;;;;;5086620;28;20599;-62
2023/07/11 03:28:06;;;;;;;1.65;0.85;;;15.40;99.90;;;;;;5034981;28;20041;-62
2023/07/11 03:30:34;;;;;;;1.98;1.02;;;15.40;99.90;;;;;;5062375;28;20040;-62
2023/07/11 03:33:00;;;;;;;2.10;0.95;;;15.40;99.90;;;;;;5089935;28;20097;-62
2023/07/11 03:35:26;;;;;;;1.92;1.13;;;15.40;99.90;;;;;;5089556;28;20071;-62
2023/07/11 03:37:52;;;;;;;1.52;0.95;;;15.40;99.90;;;;;;5090087;28;20150;-62
2023/07/11 03:40:18;;;;;;;2.25;1.10;;;15.40;99.90;;;;;;5090044;28;20111;-62
2023/07/11 03:42:43;;;;;;;3.40;1.23;;;15.40;99.90;;;;;;5071573;28;20040;-62
2023/07/11 03:45:09;;;;;;;4.05;1.30;;;15.40;99.90;;;;;;5072402;28;20049;-63
2023/07/11 03:47:36;;;;;;;2.78;1.17;;;15.40;99.90;;;;;;5071329;28;20041;-62
2023/07/11 03:50:02;;;;;;;5.68;1.33;;;15.40;99.90;;;;;;5055802;28;20072;-62
2023/07/11 03:52:28;;;;;;;3.38;1.40;;;15.40;99.90;;;;;;5073382;28;20064;-62
2023/07/11 03:54:53;;;;;;;1.25;0.77;;;15.40;99.90;;;;;;5072705;28;20055;-62
2023/07/11 03:57:19;;;;;;;2.97;1.33;;;15.40;99.90;;;;;;5040119;28;20124;-62
2023/07/11 03:59:46;;;;;;;1.40;0.88;;;15.30;99.90;;;;;;5055300;28;20047;-63
2023/07/11 04:02:12;;;;;;;1.67;0.85;;;15.30;99.90;;;;;;5092767;28;20032;-62
2023/07/11 04:04:37;;;;;;;2.70;1.33;;;15.20;99.90;;;;;;5075221;28;20046;-63
2023/07/11 04:07:04;;;;;;;1.50;0.88;;;15.20;99.90;;;;;;5075282;28;20040;-62
2023/07/11 04:09:30;;;;;;;2.28;1.17;;;15.20;99.90;;;;;;5074742;28;20048;-63
2023/07/11 04:11:56;;;;;;;2.63;1.48;;;15.30;99.90;;;;;;5075363;28;20063;-63
2023/07/11 04:14:22;;;;;;;2.50;1.40;;;15.30;99.90;;;;;;5093243;28;20520;-63
2023/07/11 04:16:48;;;;;;;1.52;0.90;;;15.20;99.90;;;;;;5074209;28;20043;-63
2023/07/11 04:19:14;;;;;;;3.10;1.00;;;15.30;99.90;;;;;;5075012;28;20040;-63
2023/07/11 04:21:40;;;;;;;1.90;0.88;;;15.20;99.90;;;;;;5073284;28;20044;-63
2023/07/11 04:24:06;;;;;;;1.95;1.17;;;15.20;99.90;;;;;;5054294;28;20152;-63
2023/07/11 04:26:32;;;;;;;4.20;1.00;;;15.20;99.90;;;;;;5054665;28;20098;-63
2023/07/11 04:28:58;;;;;;;2.20;1.23;;;15.20;99.90;;;;;;5055043;28;20040;-64
2023/07/11 04:31:25;;;;;;;4.18;1.52;;;15.30;99.90;;;;;;5054052;28;20440;-63
2023/07/11 04:33:51;;;;;;;2.72;1.30;;;15.40;99.90;;;;;;5038398;28;20063;-62
2023/07/11 04:36:16;;;;;;;1.92;1.20;;;15.40;99.90;;;;;;5072644;28;20429;-63
2023/07/11 04:38:44;;;;;;;3.63;1.50;;;15.50;99.90;;;;;;5072125;28;20544;-63
2023/07/11 04:41:10;;;;;;;2.17;1.30;;;15.70;99.90;;;;;;5072606;28;20037;-63
2023/07/11 04:43:37;;;;;;;2.00;1.35;;;15.80;99.90;;;;;;5069950;28;20547;-64
2023/07/11 04:46:05;;;;;;;2.55;1.60;;;15.80;99.90;;;;;;5052346;28;20029;-64
2023/07/11 04:48:35;;;;;;;2.33;1.27;;;15.90;99.90;;;;;;5052566;28;20622;-63
2023/07/11 04:51:04;;;;;;;3.70;1.85;;;16.00;99.90;;;;;;5033628;28;20125;-64
2023/07/11 04:53:31;;;;;;;2.83;1.98;;;16.10;99.90;;;;;;5065814;28;20056;-63
2023/07/11 04:56:00;;;;;;;3.08;2.13;;;16.20;99.90;;;;;;5092191;28;20035;-63
2023/07/11 04:58:29;;;;;;;2.83;1.67;;;16.30;99.90;;;;;;5073750;28;20074;-64
2023/07/11 05:01:03;;;;;;;4.32;1.80;;;16.40;99.90;;;;;;5090494;28;20040;-63
2023/07/11 05:03:29;;;;;;;3.10;1.77;;;16.40;99.90;;;;;;5074071;28;20105;-63
2023/07/11 05:05:56;;;;;;;6.72;2.42;;;16.40;99.90;;;;;;5073794;28;20392;-64
2023/07/11 05:08:22;;;;;;;3.53;1.70;;;16.50;99.90;;;;;;5090818;28;20047;-62
2023/07/11 05:11:16;;;;;;;2.22;1.63;;;16.60;99.90;;;;;;5090732;28;20044;-62
2023/07/11 05:13:44;;;;;;;3.78;1.85;;;16.70;99.90;;;;;;5088016;28;20115;-63
2023/07/11 05:16:29;;;;;;;3.15;1.67;;;16.80;99.90;;;;;;5090571;28;20553;-63
2023/07/11 05:18:56;;;;;;;4.30;2.47;;;16.90;99.90;;;;;;5057240;28;20076;-64
2023/07/11 05:21:22;;;;;;;8.63;2.50;;;17.10;99.90;;;;;;5054100;28;20354;-62
2023/07/11 05:23:48;;;;;;;4.13;1.98;;;17.20;99.90;;;;;;5070580;28;20040;-62
2023/07/11 05:26:17;;;;;;;5.53;2.47;;;17.40;99.90;;;;;;5073183;28;20036;-63
2023/07/11 05:28:43;;;;;;;3.58;2.35;;;17.50;99.90;;;;;;5073583;28;20046;-61
2023/07/11 05:31:10;;;;;;;6.80;2.58;;;17.70;99.90;;;;;;5073318;28;20044;-62
2023/07/11 05:33:36;;;;;;;5.75;2.22;;;17.90;99.90;;;;;;5072553;28;20040;-63
2023/07/11 05:36:31;;;;;;;7.10;2.15;;;18.10;99.90;;;;;;5073016;28;20028;-63
2023/07/11 05:38:58;;;;;;;4.00;1.75;;;18.20;99.90;;;;;;5091682;28;20036;-62
2023/07/11 05:41:24;;;;;;;4.85;2.17;;;18.40;99.90;;;;;;5058349;28;20060;-63
2023/07/11 05:43:50;;;;;;;5.80;2.45;;;18.50;99.90;;;;;;5053407;28;20436;-63
2023/07/11 05:46:16;;;;;;;3.53;2.00;;;18.60;99.90;;;;;;5053060;28;20075;-64
2023/07/11 05:48:42;;;;;;;5.15;2.50;;;18.70;99.90;;;;;;5058554;28;20089;-63
2023/07/11 05:51:14;;;;;;;3.35;2.40;;;18.80;99.90;;;;;;5073094;28;20080;-64
2023/07/11 05:53:40;;;;;;;2.97;2.03;;;18.90;99.90;;;;;;5090409;28;20071;-63
2023/07/11 05:56:06;;;;;;;2.47;1.98;;;19.00;99.90;;;;;;5072981;28;20492;-64
2023/07/11 05:58:33;;;;;;;3.85;1.98;;;19.10;99.90;;;;;;5056464;28;20040;-65
2023/07/11 06:00:59;;;;;;;3.58;2.10;;;19.30;99.90;;;;;;5089264;28;20037;-65
2023/07/11 06:03:27;;;;;;;3.85;2.67;;;19.30;99.90;;;;;;5091029;28;20036;-63
2023/07/11 06:05:54;;;;;;;6.47;2.00;;;19.40;99.90;;;;;;5091008;28;20158;-63
2023/07/11 06:08:20;;;;;;;3.08;1.65;;;19.50;99.90;;;;;;5088379;28;20051;-63
2023/07/11 06:10:46;;;;;;;4.13;1.90;;;19.60;99.90;;;;;;5089607;28;20123;-64
2023/07/11 06:13:14;;;;;;;5.32;1.70;;;19.70;99.90;;;;;;5089890;28;20126;-63
2023/07/11 06:15:40;;;;;;;4.68;2.00;;;19.80;99.90;;;;;;5064747;28;20044;-63
2023/07/11 06:18:06;;;;;;;6.57;2.17;;;19.80;99.90;;;;;;5071374;28;20120;-63
2023/07/11 06:20:32;;;;;;;3.03;1.67;;;19.80;99.90;;;;;;5090848;28;20032;-64
2023/07/11 06:22:59;;;;;;;6.63;2.05;;;19.80;99.90;;;;;;5055507;28;20039;-62
2023/07/11 06:25:25;;;;;;;4.18;2.47;;;19.80;99.90;;;;;;5090910;28;20032;-64
2023/07/11 06:27:51;;;;;;;2.67;1.50;;;19.80;99.90;;;;;;5072377;28;20419;-63
2023/07/11 06:30:17;;;;;;;3.33;1.92;;;19.90;99.90;;;;;;5089780;28;20094;-64
2023/07/11 06:32:43;;;;;;;2.80;1.80;;;20.10;99.90;;;;;;5072185;28;20067;-63
2023/07/11 06:35:09;;;;;;;2.90;1.80;;;20.30;99.90;;;;;;5069856;28;20127;-63
2023/07/11 06:37:35;;;;;;;3.72;1.70;;;20.40;99.90;;;;;;5066454;28;20044;-63
2023/07/11 06:40:04;;;;;;;3.65;2.20;;;20.50;99.90;;;;;;5089896;28;20047;-63
2023/07/11 06:42:30;;;;;;;4.60;2.15;;;20.70;99.90;;;;;;5071912;28;20059;-64
2023/07/11 06:44:56;;;;;;;3.55;1.63;;;20.80;99.90;;;;;;5072454;28;20473;-63
2023/07/11 06:47:21;;;;;;;5.15;1.77;;;20.90;99.90;;;;;;5090137;28;20040;-63
2023/07/11 06:49:48;;;;;;;4.32;2.90;;;21.00;99.90;;;;;;5054804;28;20036;-62
2023/07/11 06:52:14;;;;;;;2.15;1.85;;;21.10;99.90;;;;;;5082664;28;20048;-63
2023/07/11 06:54:40;;;;;;;4.88;1.75;;;21.20;99.90;;;;;;5035545;28;20143;-63
2023/07/11 06:57:06;;;;;;;2.97;1.83;;;21.30;99.90;;;;;;5043680;28;20116;-64
2023/07/11 06:59:32;;;;;;;2.97;2.08;;;21.50;99.90;;;;;;5045024;28;20094;-63
2023/07/11 07:01:57;;;;;;;3.15;1.80;;;21.60;99.90;;;;;;5051909;28;20404;-64
2023/07/11 07:04:23;;;;;;;3.42;1.48;;;21.70;99.90;;;;;;5051271;28;20128;-64
2023/07/11 07:06:49;;;;;;;1.98;1.33;;;21.90;99.90;;;;;;5051845;28;20109;-64
2023/07/11 07:09:15;;;;;;;2.58;1.58;;;22.10;99.90;;;;;;5051870;28;20045;-64
2023/07/11 07:11:41;;;;;;;4.50;1.58;;;22.10;99.90;;;;;;5039680;28;20068;-63
2023/07/11 07:14:09;;;;;;;4.70;1.42;;;22.20;99.90;;;;;;5049966;28;20059;-64
2023/07/11 07:16:36;;;;;;;4.95;1.83;;;22.30;99.90;;;;;;5051094;28;20044;-64
2023/07/11 07:19:08;;;;;;;5.28;1.67;;;22.20;99.90;;;;;;5051008;28;20068;-63
2023/07/11 07:21:34;;;;;;;2.45;1.45;;;22.20;99.90;;;;;;5073964;28;20115;-64
2023/07/11 07:24:02;;;;;;;2.72;1.83;;;22.10;99.90;;;;;;5055966;28;20174;-65
2023/07/11 07:26:28;;;;;;;3.40;1.40;;;22.10;99.90;;;;;;5041024;28;20049;-63
2023/07/11 07:28:53;;;;;;;2.13;1.15;;;22.20;99.90;;;;;;5069850;28;20040;-65
2023/07/11 07:31:19;;;;;;;3.67;1.38;;;22.40;99.90;;;;;;5038320;28;20403;-65
2023/07/11 07:33:45;;;;;;;2.40;1.52;;;22.50;99.90;;;;;;5035416;28;20048;-64
2023/07/11 07:36:12;;;;;;;2.25;1.35;;;22.60;99.90;;;;;;5053475;28;20040;-64
2023/07/11 07:38:39;;;;;;;1.63;0.90;;;22.60;99.90;;;;;;5052751;28;20028;-65
2023/07/11 07:41:09;;;;;;;2.65;1.25;;;22.80;99.90;;;;;;5040299;28;20033;-65
2023/07/11 07:43:43;;;;;;;3.00;1.27;;;22.90;99.90;;;;;;5055894;28;20666;-65
2023/07/11 07:46:13;;;;;;;1.77;0.90;;;23.00;99.90;;;;;;5072826;28;20135;-63
2023/07/11 07:48:40;;;;;;;2.20;1.30;;;23.20;99.90;;;;;;5055585;28;20044;-64
2023/07/11 07:51:18;;;;;;;4.18;1.42;;;23.40;99.90;;;;;;5073214;28;20043;-65
2023/07/11 07:53:44;;;;;;;3.97;1.30;;;23.50;99.90;;;;;;5092006;28;20531;-65
2023/07/11 07:56:21;;;;;;;6.28;1.40;;;23.60;99.90;;;;;;5108347;28;20047;-64
2023/07/11 07:58:48;;;;;;;1.50;0.98;;;23.70;99.90;;;;;;5060789;28;20064;-64
2023/07/11 08:01:16;;;;;;;2.25;1.33;;;23.80;99.90;;;;;;5053136;28;20133;-64
2023/07/11 08:03:43;;;;;;;1.92;1.08;;;23.70;99.90;;;;;;5074883;28;20500;-64
2023/07/11 08:06:10;;;;;;;2.00;1.27;;;23.70;99.90;;;;;;5058813;28;20074;-64
2023/07/11 08:08:36;;;;;;;4.22;1.38;;;23.70;99.90;;;;;;5092269;28;20032;-66
2023/07/11 08:11:04;;;;;;;2.30;1.30;;;23.80;99.90;;;;;;5073649;28;20036;-64
2023/07/11 08:13:30;;;;;;;1.98;1.30;;;23.90;99.90;;;;;;5070222;28;20439;-65
2023/07/11 08:15:56;;;;;;;1.77;1.20;;;24.00;99.90;;;;;;5065148;28;20123;-67
2023/07/11 08:18:22;;;;;;;3.97;1.35;;;24.00;99.90;;;;;;5054901;28;20045;-66
2023/07/11 08:20:48;;;;;;;2.47;1.17;;;24.00;99.90;;;;;;5055581;28;20373;-68
2023/07/11 08:23:15;;;;;;;2.95;1.58;;;24.10;99.90;;;;;;5058189;28;20044;-66
2023/07/11 08:25:41;;;;;;;5.43;1.40;;;24.30;99.90;;;;;;5075352;28;20059;-67
2023/07/11 08:28:07;;;;;;;2.83;1.58;;;24.50;99.90;;;;;;5074259;28;20487;-66
2023/07/11 08:30:39;;;;;;;3.20;1.35;;;24.60;99.90;;;;;;5056435;28;20424;-67
2023/07/11 08:33:06;;;;;;;2.60;1.00;;;24.80;99.90;;;;;;5054350;28;20050;-66
2023/07/11 08:35:32;;;;;;;2.30;0.90;;;24.90;99.90;;;;;;5072039;28;20044;-69
2023/07/11 08:37:57;;;;;;;2.05;1.20;;;24.90;99.90;;;;;;5054707;28;20050;-67
2023/07/11 08:40:28;;;;;;;1.35;0.88;;;25.10;99.90;;;;;;5038045;28;20036;-66
2023/07/11 08:42:54;;;;;;;2.40;0.90;;;25.30;99.90;;;;;;5078551;28;20437;-67
2023/07/11 08:45:24;;;;;;;2.15;1.02;;;25.50;99.90;;;;;;5091200;28;20047;-65
2023/07/11 08:48:42;;;;;;;2.15;0.93;;;25.80;99.90;;;;;;5074185;28;20048;-66
2023/07/11 08:51:26;;;;;;;1.92;0.88;;;26.20;99.20;;;;;;5070913;28;20508;-64
2023/07/11 08:54:05;;;;;;;3.33;0.80;;;26.50;99.90;;;;;;5073717;28;20048;-66
2023/07/11 08:56:43;;;;;;;2.35;0.98;;;26.70;99.10;;;;;;5073184;28;20047;-65
2023/07/11 08:59:24;;;;;;;4.18;0.98;;;26.70;98.60;;;;;;5073533;28;20539;-65
2023/07/11 09:02:06;;;;;;;1.45;0.73;;;26.80;98.70;;;;;;5073910;28;20047;-65
2023/07/11 09:04:33;;;;;;;5.13;1.45;;;26.90;97.20;;;;;;5068872;28;20110;-65
2023/07/11 09:07:09;;;;;;;1.58;0.63;;;27.00;97.70;;;;;;5050431;28;20036;-65
2023/07/11 09:09:41;;;;;;;2.35;1.30;;;27.20;97.90;;;;;;5091286;28;20472;-65
2023/07/11 09:12:40;;;;;;;2.20;1.00;;;27.20;96.90;;;;;;5050906;28;20048;-64
2023/07/11 09:15:25;;;;;;;2.35;0.95;;;27.20;96.70;;;;;;5067680;28;20047;-65
2023/07/11 09:18:29;;;;;;;1.67;0.50;;;27.20;96.50;;;;;;5085787;28;20037;-65
2023/07/11 09:21:06;;;;;;;1.58;0.55;;;27.30;97.50;;;;;;4961570;28;20078;-64
2023/07/11 09:23:57;;;;;;;1.60;0.88;;;27.50;97.10;;;;;;4954066;28;20431;-64
2023/07/11 09:26:31;;;;;;;3.05;0.77;;;27.60;97.40;;;;;;4968373;28;20039;-65
2023/07/11 09:29:08;;;;;;;1.75;0.60;;;27.70;95.90;;;;;;4973744;28;20038;-64
2023/07/11 09:31:45;;;;;;;1.98;1.13;;;27.60;96.00;;;;;;4973099;28;20057;-64
2023/07/11 09:34:27;;;;;;;1.40;0.73;;;27.60;95.50;;;;;;4989753;28;20038;-65
2023/07/11 09:36:57;;;;;;;3.60;1.25;;;27.50;94.90;;;;;;4973361;28;20137;-64
2023/07/11 09:39:25;;;;;;;4.35;1.13;;;27.50;95.70;;;;;;4972888;28;20121;-64
2023/07/11 09:42:04;;;;;;;2.63;0.75;;;27.50;95.80;;;;;;4983711;28;20100;-64
2023/07/11 09:44:30;;;;;;;2.17;1.05;;;27.40;95.90;;;;;;4990231;28;20104;-64
2023/07/11 09:46:58;;;;;;;2.45;0.82;;;27.30;95.90;;;;;;4991411;28;20128;-64
2023/07/11 09:49:29;;;;;;;2.65;0.70;;;27.40;96.00;;;;;;4991367;28;20108;-64
2023/07/11 09:51:58;;;;;;;1.60;0.93;;;27.60;95.70;;;;;;4990781;28;20071;-66
2023/07/11 09:54:28;;;;;;;2.67;1.20;;;28.00;95.80;;;;;;4991387;28;20050;-64
2023/07/11 09:56:59;;;;;;;1.52;0.88;;;28.30;95.20;;;;;;5058020;28;20119;-64
2023/07/11 09:59:26;;;;;;;2.17;0.90;;;28.40;95.50;;;;;;5080313;28;20043;-64
2023/07/11 10:01:55;;;;;;;2.03;0.60;;;28.50;95.10;;;;;;5069691;28;20477;-64
2023/07/11 10:04:24;;;;;;;2.08;0.93;;;28.70;94.60;;;;;;5055335;28;20380;-65
2023/07/11 10:06:57;;;;;;;1.25;0.68;;;28.90;94.10;;;;;;5054557;28;20191;-65
2023/07/11 10:09:37;;;;;;;0.90;0.50;;;28.90;93.50;;;;;;5071803;28;20040;-64
2023/07/11 10:12:11;;;;;;;0.93;0.52;;;28.90;93.60;;;;;;5054966;28;20047;-66
2023/07/11 10:14:42;;;;;;;3.30;0.80;;;28.90;93.50;;;;;;5060634;28;20089;-67
2023/07/11 10:17:35;;;;;;;3.38;0.82;;;29.00;92.70;;;;;;5069393;28;20178;-64
2023/07/11 10:20:06;;;;;;;1.00;0.60;;;29.10;91.70;;;;;;5050823;28;20044;-64
2023/07/11 10:22:34;;;;;;;1.88;0.73;;;29.30;93.10;;;;;;5083288;28;20495;-65
2023/07/11 10:25:26;;;;;;;2.35;1.10;;;29.40;92.70;;;;;;5089814;28;20047;-64
2023/07/11 10:27:59;;;;;;;3.42;0.80;;;29.50;91.50;;;;;;5054217;28;20051;-64
2023/07/11 10:30:36;;;;;;;2.38;0.80;;;29.60;91.10;;;;;;5054790;28;20047;-65
2023/07/11 10:33:19;;;;;;;2.53;0.75;;;29.50;91.00;;;;;;5071311;28;20032;-64
2023/07/11 10:35:52;;;;;;;4.13;0.80;;;29.40;91.30;;;;;;5070148;28;20612;-64
2023/07/11 10:38:43;;;;;;;1.75;0.73;;;29.40;90.90;;;;;;5051751;28;20486;-65
2023/07/11 10:41:17;;;;;;;2.60;0.80;;;29.40;90.70;;;;;;5070679;28;20043;-63
2023/07/11 10:43:44;;;;;;;1.52;0.65;;;29.40;90.80;;;;;;5090136;28;20036;-64
2023/07/11 10:46:34;;;;;;;1.15;0.55;;;29.40;90.50;;;;;;5072508;28;20048;-64
2023/07/11 10:49:06;;;;;;;2.38;1.08;;;29.30;90.40;;;;;;5071498;28;20090;-64
2023/07/11 10:51:46;;;;;;;2.75;0.93;;;29.10;89.70;;;;;;5090130;28;20123;-63
2023/07/11 10:54:49;;;;;;;0.57;0.38;;;28.80;90.20;;;;;;5089824;28;20421;-64
2023/07/11 10:57:28;;;;;;;1.90;0.70;;;28.60;90.30;;;;;;5063744;28;20100;-64
2023/07/11 10:59:54;;;;;;;2.70;0.80;;;28.50;91.00;;;;;;5075898;28;20684;-64
2023/07/11 11:02:57;;;;;;;1.83;0.75;;;28.50;91.10;;;;;;5035006;28;20102;-64
2023/07/11 11:05:35;;;;;;;2.30;0.80;;;28.60;90.10;;;;;;5070231;28;20041;-66
2023/07/11 11:08:14;;;;;;;6.45;1.40;;;28.50;90.10;;;;;;5051564;28;20048;-63
2023/07/11 11:10:49;;;;;;;1.33;0.60;;;28.60;90.90;;;;;;5068370;28;20051;-64
2023/07/11 11:13:27;;;;;;;1.40;0.45;;;28.90;91.00;;;;;;5050986;28;20083;-64
2023/07/11 11:16:23;;;;;;;3.90;0.82;;;29.20;90.80;;;;;;5050382;28;20080;-64
2023/07/11 11:19:03;;;;;;;3.33;0.90;;;29.30;90.30;;;;;;5065213;28;20448;-64
2023/07/11 11:21:39;;;;;;;2.35;0.80;;;29.20;88.30;;;;;;5089094;28;20457;-64
2023/07/11 11:24:29;;;;;;;3.70;0.90;;;29.00;89.00;;;;;;5070361;28;20101;-64
2023/07/11 11:27:00;;;;;;;2.58;1.35;;;29.00;90.00;;;;;;5071811;28;20039;-64
2023/07/11 11:29:46;;;;;;;4.43;1.00;;;29.30;89.90;;;;;;5089830;28;20480;-64
2023/07/11 11:32:31;;;;;;;1.88;0.90;;;29.40;88.40;;;;;;5072058;28;20040;-64
2023/07/11 11:35:23;;;;;;;1.67;0.70;;;29.50;87.40;;;;;;5071710;28;20040;-64
2023/07/11 11:37:59;;;;;;;2.00;0.80;;;29.60;88.20;;;;;;5088484;28;20059;-63
2023/07/11 11:40:30;;;;;;;1.65;0.80;;;29.70;88.30;;;;;;5054249;28;20098;-64
2023/07/11 11:43:02;;;;;;;4.50;1.00;;;29.70;87.90;;;;;;5034222;28;20036;-64
2023/07/11 11:45:29;;;;;;;1.40;0.80;;;29.70;89.40;;;;;;5068339;28;20389;-63
2023/07/11 11:47:58;;;;;;;1.65;0.77;;;29.80;88.30;;;;;;5062791;28;20448;-63
2023/07/11 11:50:26;;;;;;;3.28;1.00;;;29.70;87.00;;;;;;5070714;28;20131;-63
2023/07/11 11:53:22;;;;;;;3.58;0.90;;;29.50;87.30;;;;;;5053208;28;20055;-64
2023/07/11 11:56:05;;;;;;;1.83;0.93;;;29.20;86.10;;;;;;5088614;28;20052;-63
2023/07/11 11:58:32;;;;;;;4.47;0.90;;;29.00;87.80;;;;;;5087847;28;20040;-63
2023/07/11 12:00:59;;;;;;;2.80;0.80;;;28.90;88.50;;;;;;5076073;28;20040;-64
2023/07/11 12:03:34;;;;;;;4.60;0.88;;;28.90;87.50;;;;;;5069817;28;20119;-64
2023/07/11 12:06:27;;;;;;;1.00;0.60;;;28.70;87.10;;;;;;5070296;28;20047;-63
2023/07/11 12:09:18;;;;;;;4.32;0.75;;;28.60;89.10;;;;;;5057520;28;20046;-63
2023/07/11 12:12:03;;;;;;;1.75;0.82;;;28.70;87.40;;;;;;5067257;28;20048;-65
2023/07/11 12:14:36;;;;;;;2.67;0.52;;;28.80;86.70;;;;;;5063071;28;20518;-63
2023/07/11 12:17:02;;;;;;;2.28;0.52;;;28.70;87.00;;;;;;5081800;28;20055;-66
2023/07/11 12:19:30;;;;;;;2.33;1.00;;;28.70;86.60;;;;;;5068197;28;20046;-66
2023/07/11 12:22:04;;;;;;;2.23;0.70;;;28.70;87.00;;;;;;5091693;28;20087;-64
2023/07/11 12:24:34;;;;;;;1.40;0.73;;;28.90;86.80;;;;;;5073152;28;20281;-64
2023/07/11 12:27:29;;;;;;;4.85;1.40;;;28.90;86.50;;;;;;5073061;28;20087;-63
2023/07/11 12:29:56;;;;;;;3.00;0.68;;;28.80;85.40;;;;;;5050125;28;20052;-64
2023/07/11 12:32:49;;;;;;;3.50;0.93;;;28.70;85.50;;;;;;5053275;28;20044;-64
2023/07/11 12:35:25;;;;;;;1.58;0.90;;;28.70;86.20;;;;;;5067447;28;20263;-64
2023/07/11 12:38:13;;;;;;;1.33;0.40;;;28.70;85.70;;;;;;5053450;28;20500;-63
2023/07/11 12:40:59;;;;;;;1.90;0.60;;;28.70;85.20;;;;;;5062342;28;20055;-64
2023/07/11 12:43:29;;;;;;;5.07;0.82;;;28.70;86.30;;;;;;5112018;28;20047;-65
2023/07/11 12:45:57;;;;;;;3.70;0.80;;;28.80;85.40;;;;;;5094016;28;20074;-64
2023/07/11 12:48:36;;;;;;;1.20;0.68;;;28.70;82.90;;;;;;5066564;28;20075;-63
2023/07/11 12:51:21;;;;;;;3.47;0.70;;;28.60;84.20;;;;;;5073628;28;20107;-65
2023/07/11 12:53:51;;;;;;;3.92;0.85;;;28.50;84.60;;;;;;5072507;28;20154;-64
2023/07/11 12:56:16;;;;;;;1.73;0.50;;;28.50;84.70;;;;;;5091439;28;20078;-64
2023/07/11 12:58:42;;;;;;;2.10;0.70;;;28.40;84.00;;;;;;5074626;28;20551;-63
2023/07/11 13:01:14;;;;;;;0.82;0.57;;;28.40;84.50;;;;;;5093195;28;20369;-63
2023/07/11 13:03:40;;;;;;;2.47;0.55;;;28.40;84.30;;;;;;5098732;28;20055;-64
2023/07/11 13:06:25;;;;;;;3.28;0.80;;;28.30;83.90;;;;;;5108615;28;20035;-63